Time,TemperatureF,DewpointF,PressureIn,WindDirection,WindDirectionDegrees,WindSpeedMPH,WindSpeedGustMPH,Humidity,HourlyPrecipIn,Conditions,Clouds,dailyrainin,SoftwareType,DateUTC
2013-01-06 13:12:00,44.0,44.0,30.10,NNW,331,2.0,7.0,100,0.00,,,0.21,,2013-01-06 21:12:00,
2013-01-06 13:22:00,45.0,44.0,30.09,North,3,2.0,7.0,97,0.00,,,0.21,,2013-01-06 21:22:00,
2013-01-06 13:32:00,45.0,44.0,30.10,North,1,3.0,9.0,98,0.00,,,0.21,,2013-01-06 21:32:00,
2013-01-06 13:42:00,45.0,44.0,30.10,North,1,3.0,9.0,98,0.00,,,0.21,,2013-01-06 21:42:00,
2013-01-06 13:52:00,45.0,44.0,30.10,North,351,0.0,6.0,97,0.00,,,0.21,,2013-01-06 21:52:00,
2013-01-06 14:01:00,46.0,45.0,30.10,West,279,2.0,5.0,98,0.00,,,0.21,,2013-01-06 22:01:00,
2013-01-06 14:12:00,46.0,45.0,30.10,West,279,2.0,5.0,98,0.00,,,0.21,,2013-01-06 22:12:00,
2013-01-06 14:22:00,46.0,45.0,30.10,West,278,0.0,5.0,98,0.00,,,0.21,,2013-01-06 22:22:00,
2013-01-06 14:32:00,45.0,44.0,30.10,WSW,241,1.0,4.0,96,0.00,,,0.21,,2013-01-06 22:32:00,
2013-01-06 14:42:00,45.0,44.0,30.10,WSW,241,1.0,4.0,96,0.00,,,0.21,,2013-01-06 22:42:00,
2013-01-06 14:52:00,45.0,44.0,30.10,WSW,253,2.0,4.0,96,0.00,,,0.21,,2013-01-06 22:52:00,
2013-01-06 15:01:00,46.0,45.0,30.10,WSW,253,1.0,3.0,96,0.00,,,0.21,,2013-01-06 23:01:00,
2013-01-06 15:12:00,46.0,45.0,30.10,WSW,253,1.0,3.0,96,0.00,,,0.21,,2013-01-06 23:12:00,
2013-01-06 15:22:00,46.0,45.0,30.10,West,259,3.0,5.0,95,0.00,,,0.21,,2013-01-06 23:22:00,
2013-01-06 15:32:00,45.0,44.0,30.10,WSW,257,2.0,4.0,96,0.00,,,0.21,,2013-01-06 23:32:00,
2013-01-06 15:42:00,45.0,44.0,30.10,WSW,257,2.0,4.0,96,0.00,,,0.21,,2013-01-06 23:42:00,
2013-01-06 15:53:00,45.0,44.0,30.10,WNW,302,3.0,5.0,96,0.00,,,0.21,,2013-01-06 23:53:00,
2013-01-06 16:02:00,45.0,44.0,30.10,NW,314,2.0,4.0,96,0.00,,,0.21,,2013-01-07 00:02:00,
2013-01-06 16:11:00,45.0,44.0,30.10,NW,314,2.0,4.0,96,0.00,,,0.21,,2013-01-07 00:11:00,
2013-01-06 16:22:00,45.0,44.0,30.11,NW,317,2.0,3.0,96,0.00,,,0.21,,2013-01-07 00:22:00,
2013-01-06 16:32:00,45.0,44.0,30.10,NNW,330,1.0,1.0,96,0.00,,,0.21,,2013-01-07 00:32:00,
2013-01-06 16:42:00,45.0,44.0,30.10,NNW,330,1.0,1.0,96,0.00,,,0.21,,2013-01-07 00:42:00,
2013-01-06 16:52:00,45.0,44.0,30.10,WNW,299,0.0,2.0,96,0.00,,,0.21,,2013-01-07 00:52:00,
2013-01-06 17:02:00,44.0,43.0,30.11,NW,320,0.0,5.0,96,0.00,,,0.21,,2013-01-07 01:02:00,
2013-01-06 17:11:00,44.0,43.0,30.11,NW,320,0.0,0.0,96,0.00,,,0.21,,2013-01-07 01:11:00,
2013-01-06 17:22:00,44.0,43.0,30.11,NW,320,0.0,0.0,96,0.00,,,0.21,,2013-01-07 01:22:00,
2013-01-06 17:32:00,43.0,42.0,30.11,NW,311,2.0,3.0,97,0.00,,,0.21,,2013-01-07 01:32:00,
2013-01-06 17:42:00,43.0,42.0,30.11,NW,311,2.0,3.0,97,0.00,,,0.21,,2013-01-07 01:42:00,
2013-01-06 17:52:00,42.0,41.0,30.11,NNW,335,0.0,3.0,97,0.00,,,0.21,,2013-01-07 01:52:00,
2013-01-06 18:02:00,42.0,41.0,30.11,NW,309,0.0,5.0,98,0.00,,,0.21,,2013-01-07 02:02:00,
2013-01-06 18:11:00,42.0,41.0,30.11,NW,309,0.0,5.0,98,0.00,,,0.21,,2013-01-07 02:11:00,
2013-01-06 18:22:00,42.0,41.0,30.11,NW,309,0.0,0.0,98,0.00,,,0.20,,2013-01-07 02:22:00,
2013-01-06 18:32:00,40.0,39.0,30.11,NW,309,0.0,0.0,98,0.00,,,0.20,,2013-01-07 02:32:00,
2013-01-06 18:42:00,40.0,39.0,30.11,NW,309,0.0,0.0,98,0.00,,,0.20,,2013-01-07 02:42:00,
2013-01-06 18:52:00,40.0,40.0,30.11,NW,309,0.0,0.0,99,0.00,,,0.18,,2013-01-07 02:52:00,
2013-01-06 19:02:00,40.0,40.0,30.10,NW,309,0.0,0.0,100,0.00,,,0.17,,2013-01-07 03:02:00,
2013-01-06 19:11:00,40.0,40.0,30.10,NW,309,0.0,0.0,100,0.00,,,0.17,,2013-01-07 03:11:00,
2013-01-06 19:22:00,40.0,40.0,30.10,NW,309,0.0,0.0,100,0.00,,,0.17,,2013-01-07 03:22:00,
2013-01-06 19:32:00,39.0,39.0,30.11,NW,309,0.0,0.0,100,0.00,,,0.17,,2013-01-07 03:32:00,
2013-01-06 19:42:00,39.0,39.0,30.11,NW,309,0.0,0.0,100,0.00,,,0.17,,2013-01-07 03:42:00,
2013-01-06 19:52:00,39.0,39.0,30.11,NW,309,0.0,0.0,100,0.00,,,0.17,,2013-01-07 03:52:00,
2013-01-06 20:02:00,39.0,39.0,30.11,NW,309,0.0,0.0,100,0.00,,,0.14,,2013-01-07 04:02:00,
2013-01-06 20:12:00,39.0,39.0,30.11,NW,309,0.0,0.0,100,0.00,,,0.14,,2013-01-07 04:12:00,
2013-01-06 20:22:00,39.0,39.0,30.11,NW,309,0.0,0.0,100,0.00,,,0.13,,2013-01-07 04:22:00,
2013-01-06 20:32:00,38.0,38.0,30.12,NW,309,0.0,0.0,100,0.00,,,0.12,,2013-01-07 04:32:00,
2013-01-06 20:42:00,38.0,38.0,30.12,NW,309,0.0,0.0,100,0.00,,,0.12,,2013-01-07 04:42:00,
2013-01-06 20:52:00,38.0,38.0,30.12,NW,309,0.0,0.0,100,0.00,,,0.11,,2013-01-07 04:52:00,
2013-01-06 21:02:00,38.0,38.0,30.12,NW,309,0.0,0.0,100,0.00,,,0.09,,2013-01-07 05:02:00,
2013-01-06 21:12:00,38.0,38.0,30.12,NW,309,0.0,0.0,100,0.00,,,0.09,,2013-01-07 05:12:00,
2013-01-06 21:22:00,38.0,38.0,30.13,NW,309,0.0,0.0,100,0.00,,,0.08,,2013-01-07 05:22:00,
2013-01-06 21:32:00,37.0,37.0,30.13,NW,309,0.0,0.0,100,0.00,,,0.08,,2013-01-07 05:32:00,
2013-01-06 21:42:00,37.0,37.0,30.13,NW,309,0.0,0.0,100,0.00,,,0.08,,2013-01-07 05:42:00,
2013-01-06 21:52:00,38.0,38.0,30.13,NW,309,0.0,0.0,100,0.00,,,0.08,,2013-01-07 05:52:00,
2013-01-06 22:02:00,38.0,38.0,30.11,ENE,72,3.0,6.0,100,0.00,,,0.07,,2013-01-07 06:02:00,
2013-01-06 22:11:00,38.0,38.0,30.11,ENE,72,3.0,6.0,100,0.00,,,0.07,,2013-01-07 06:11:00,
2013-01-06 22:22:00,38.0,38.0,30.11,NNE,31,0.0,0.0,100,0.00,,,0.06,,2013-01-07 06:22:00,
2013-01-06 22:32:00,38.0,38.0,30.11,NE,38,0.0,6.0,100,0.00,,,0.06,,2013-01-07 06:32:00,
2013-01-06 22:42:00,38.0,38.0,30.11,NE,38,0.0,6.0,100,0.00,,,0.06,,2013-01-07 06:42:00,
2013-01-06 22:52:00,38.0,38.0,30.10,NE,38,0.0,0.0,100,0.00,,,0.05,,2013-01-07 06:52:00,
2013-01-06 23:02:00,37.0,37.0,30.10,NE,38,0.0,0.0,100,0.00,,,0.05,,2013-01-07 07:02:00,
2013-01-06 23:11:00,37.0,37.0,30.10,NE,38,0.0,0.0,100,0.00,,,0.05,,2013-01-07 07:11:00,
2013-01-06 23:22:00,37.0,37.0,30.11,NE,38,0.0,0.0,100,0.01,,,0.06,,2013-01-07 07:22:00,
2013-01-06 23:32:00,37.0,37.0,30.11,NE,38,0.0,0.0,100,0.01,,,0.03,,2013-01-07 07:32:00,
2013-01-06 23:42:00,37.0,37.0,30.11,NE,38,0.0,0.0,100,0.01,,,0.03,,2013-01-07 07:42:00,
2013-01-06 23:52:00,37.0,37.0,30.11,NE,38,0.0,0.0,100,0.01,,,0.03,,2013-01-07 07:52:00,